Time;durP1;ratioP1;P1;durP2;ratioP2;P2;SDS_P1;SDS_P2;PMS_P1;PMS_P2;Temp;Humidity;BMP_temperature;BMP_pressure;BME280_temperature;BME280_humidity;BME280_pressure;Samples;Min_cycle;Max_cycle;Signal;HPM_P1;HPM_P2
2021/12/16 00:03:21;;;;;;;26.05;9.07;;;;;;;;;;5041138;28;20037;-82
2021/12/16 00:08:18;;;;;;;25.10;8.93;;;;;;;;;;5057195;28;20045;-82
2021/12/16 00:19:25;;;;;;;19.25;8.07;;;;;;;;;;5032557;28;20039;-84
2021/12/16 00:33:13;;;;;;;27.88;9.05;;;;;;;;;;5056158;28;20036;-80
2021/12/16 00:35:41;;;;;;;28.88;9.48;;;;;;;;;;5057211;28;20036;-82
2021/12/16 00:38:07;;;;;;;33.50;10.05;;;;;;;;;;5034328;28;20409;-83
2021/12/16 00:40:33;;;;;;;19.73;9.00;;;;;;;;;;5054213;28;20025;-82
2021/12/16 00:43:14;;;;;;;22.73;9.20;;;;;;;;;;5053224;28;20056;-83
2021/12/16 00:45:58;;;;;;;26.02;10.63;;;;;;;;;;5032666;28;20052;-83
2021/12/16 00:48:47;;;;;;;31.20;10.65;;;;;;;;;;5050180;28;20021;-82
2021/12/16 00:54:11;;;;;;;22.27;10.00;;;;;;;;;;4980261;28;20176;-82
2021/12/16 00:56:38;;;;;;;28.52;10.48;;;;;;;;;;5037121;28;20076;-83
2021/12/16 00:59:07;;;;;;;33.70;10.50;;;;;;;;;;5059472;28;20029;-82
2021/12/16 01:02:02;;;;;;;28.05;10.98;;;;;;;;;;5040784;28;20009;-82
2021/12/16 01:40:20;;;;;;;54.90;15.57;;;;;;;;;;5029488;28;20041;-79
2021/12/16 01:45:51;;;;;;;;;;;;;;;;;;5029613;28;20049;-79
2021/12/16 01:50:57;;;;;;;51.50;16.25;;;;;;;;;;5029830;28;20093;-78
2021/12/16 01:56:07;;;;;;;56.80;17.80;;;;;;;;;;5021262;28;20433;-78
2021/12/16 01:58:34;;;;;;;51.22;18.00;;;;;;;;;;5020774;28;20199;-80
2021/12/16 02:01:19;;;;;;;48.08;16.95;;;;;;;;;;5020838;28;20018;-78
2021/12/16 02:03:54;;;;;;;61.95;19.60;;;;;;;;;;5006164;28;20053;-79
2021/12/16 02:06:43;;;;;;;59.55;19.35;;;;;;;;;;5021371;28;20022;-79
2021/12/16 02:09:23;;;;;;;50.38;19.13;;;;;;;;;;5003950;28;20036;-79
2021/12/16 02:31:25;;;;;;;69.70;22.52;;;;;;;;;;5020451;28;20137;-78
2021/12/16 02:38:52;;;;;;;73.30;24.20;;;;;;;;;;5028024;28;20041;-76
2021/12/16 02:41:18;;;;;;;72.60;23.27;;;;;;;;;;5008728;28;20030;-79
2021/12/16 02:48:44;;;;;;;64.75;24.90;;;;;;;;;;5026522;28;20048;-79
2021/12/16 02:51:18;;;;;;;69.40;24.25;;;;;;;;;;5015393;28;20022;-79
2021/12/16 02:53:49;;;;;;;72.85;26.17;;;;;;;;;;5031363;28;20077;-75
2021/12/16 02:56:16;;;;;;;84.20;28.00;;;;;;;;;;5025128;28;20030;-79
2021/12/16 02:58:43;;;;;;;70.28;25.98;;;;;;;;;;5020164;28;20032;-77
2021/12/16 03:01:18;;;;;;;72.28;26.25;;;;;;;;;;5019831;28;20036;-80
2021/12/16 03:03:45;;;;;;;84.38;29.17;;;;;;;;;;5019502;28;20356;-76
2021/12/16 03:06:12;;;;;;;63.65;27.08;;;;;;;;;;5020905;28;20030;-76
2021/12/16 03:08:38;;;;;;;70.57;28.05;;;;;;;;;;5004983;28;20030;-79
2021/12/16 03:19:19;;;;;;;91.40;31.75;;;;;;;;;;4993401;28;20041;-82
2021/12/16 03:21:50;;;;;;;74.07;30.92;;;;;;;;;;5004230;28;20026;-77
2021/12/16 03:35:38;;;;;;;87.45;32.97;;;;;;;;;;4992879;28;20022;-81
2021/12/16 03:38:06;;;;;;;81.43;32.38;;;;;;;;;;5024565;28;20394;-79
2021/12/16 03:40:33;;;;;;;90.03;34.58;;;;;;;;;;5004283;28;20014;-79
2021/12/16 03:43:01;;;;;;;89.97;32.67;;;;;;;;;;5010622;28;20077;-78
2021/12/16 03:48:17;;;;;;;95.30;35.92;;;;;;;;;;5031811;28;20109;-77
2021/12/16 03:50:43;;;;;;;88.45;34.30;;;;;;;;;;5018363;28;20022;-79
2021/12/16 03:53:09;;;;;;;89.50;36.85;;;;;;;;;;5032431;28;20037;-78
2021/12/16 03:55:36;;;;;;;91.95;35.17;;;;;;;;;;5024904;28;20026;-81
2021/12/16 03:58:02;;;;;;;108.30;37.42;;;;;;;;;;5006154;28;20121;-78
2021/12/16 04:00:30;;;;;;;117.65;37.53;;;;;;;;;;5022902;28;20471;-82
2021/12/16 04:02:56;;;;;;;94.68;35.88;;;;;;;;;;5006262;28;20022;-78
2021/12/16 04:05:23;;;;;;;105.95;38.60;;;;;;;;;;5022219;28;20037;-79
2021/12/16 04:07:49;;;;;;;127.78;38.67;;;;;;;;;;5006375;28;20459;-77
2021/12/16 04:10:34;;;;;;;105.70;37.17;;;;;;;;;;5015535;28;20039;-74
2021/12/16 04:13:02;;;;;;;109.88;37.28;;;;;;;;;;5040669;28;20010;-76
2021/12/16 04:15:28;;;;;;;103.57;37.03;;;;;;;;;;5040466;28;20041;-76
2021/12/16 04:17:54;;;;;;;103.22;37.53;;;;;;;;;;5040530;28;20018;-77
2021/12/16 04:20:21;;;;;;;106.63;36.40;;;;;;;;;;5023438;28;20022;-75
2021/12/16 04:22:47;;;;;;;111.43;38.60;;;;;;;;;;5040662;28;20074;-75
2021/12/16 04:25:15;;;;;;;127.53;39.70;;;;;;;;;;5040710;28;20018;-75
2021/12/16 04:27:42;;;;;;;120.18;41.25;;;;;;;;;;5039999;28;20018;-78
2021/12/16 04:30:09;;;;;;;116.05;38.97;;;;;;;;;;5040447;28;20022;-75
2021/12/16 04:32:35;;;;;;;107.18;38.85;;;;;;;;;;5039749;28;20024;-76
2021/12/16 04:35:01;;;;;;;114.53;38.60;;;;;;;;;;5036940;28;20010;-77
2021/12/16 04:37:27;;;;;;;116.18;37.50;;;;;;;;;;5011396;28;20026;-79
2021/12/16 04:39:54;;;;;;;130.70;40.35;;;;;;;;;;5029571;28;20091;-79
2021/12/16 04:42:23;;;;;;;119.05;39.05;;;;;;;;;;5030254;28;20021;-76
2021/12/16 04:44:49;;;;;;;125.70;38.47;;;;;;;;;;5022910;28;20030;-76
2021/12/16 04:47:15;;;;;;;133.10;39.28;;;;;;;;;;5034752;28;20030;-77
2021/12/16 04:49:42;;;;;;;118.78;39.67;;;;;;;;;;5029431;28;20093;-76
2021/12/16 04:52:10;;;;;;;132.43;40.05;;;;;;;;;;5028029;28;20050;-81
2021/12/16 04:54:36;;;;;;;111.47;39.10;;;;;;;;;;5031383;28;20068;-77
2021/12/16 04:57:02;;;;;;;138.48;40.88;;;;;;;;;;5031691;28;20026;-78
2021/12/16 04:59:31;;;;;;;141.32;41.90;;;;;;;;;;5032293;28;20034;-76
2021/12/16 05:02:03;;;;;;;109.63;39.78;;;;;;;;;;5033241;28;20033;-77
2021/12/16 05:04:29;;;;;;;109.13;39.25;;;;;;;;;;5017610;28;20037;-75
2021/12/16 05:06:56;;;;;;;124.90;39.85;;;;;;;;;;5015655;28;20065;-75
2021/12/16 05:12:08;;;;;;;144.07;41.42;;;;;;;;;;5030957;28;20026;-79
2021/12/16 05:14:34;;;;;;;142.52;42.83;;;;;;;;;;5011766;28;20119;-76
2021/12/16 05:17:05;;;;;;;118.47;42.65;;;;;;;;;;5029308;28;20048;-77
2021/12/16 05:19:31;;;;;;;126.90;41.08;;;;;;;;;;5029631;28;20030;-77
2021/12/16 05:24:14;;;;;;;127.93;42.95;;;;;;;;;;5011685;28;20374;-78
2021/12/16 05:24:44;;;;;;;119.70;40.30;;;;;;;;;;5034546;28;20094;-77
2021/12/16 05:27:10;;;;;;;130.18;40.75;;;;;;;;;;5015440;28;20030;-77
2021/12/16 05:29:36;;;;;;;126.10;43.13;;;;;;;;;;5031898;28;20034;-79
2021/12/16 05:32:03;;;;;;;111.53;38.85;;;;;;;;;;5012393;28;20061;-76
2021/12/16 05:34:29;;;;;;;125.32;40.70;;;;;;;;;;5014975;28;20026;-76
2021/12/16 05:36:55;;;;;;;117.03;39.17;;;;;;;;;;5017625;28;20005;-75
2021/12/16 05:39:22;;;;;;;97.00;36.30;;;;;;;;;;5032141;28;20037;-79
2021/12/16 05:41:48;;;;;;;101.47;34.95;;;;;;;;;;5013649;28;20037;-78
2021/12/16 05:44:14;;;;;;;108.38;36.78;;;;;;;;;;5034115;28;20049;-78
2021/12/16 05:46:40;;;;;;;95.63;34.30;;;;;;;;;;5030904;28;20044;-78
2021/12/16 05:49:13;;;;;;;83.60;33.05;;;;;;;;;;5029669;28;20475;-77
2021/12/16 05:51:41;;;;;;;99.75;33.85;;;;;;;;;;5016053;28;20025;-78
2021/12/16 05:54:07;;;;;;;70.38;30.27;;;;;;;;;;5017711;28;20014;-77
2021/12/16 05:56:34;;;;;;;80.40;30.63;;;;;;;;;;5032892;28;20040;-78
2021/12/16 05:59:00;;;;;;;72.38;29.13;;;;;;;;;;5028059;28;20527;-77
2021/12/16 06:01:28;;;;;;;80.88;30.58;;;;;;;;;;5028122;28;20022;-79
2021/12/16 06:03:54;;;;;;;88.18;30.17;;;;;;;;;;5011710;28;20030;-78
2021/12/16 06:06:21;;;;;;;78.43;29.08;;;;;;;;;;5010486;28;20030;-77
2021/12/16 06:08:48;;;;;;;82.90;28.33;;;;;;;;;;5016660;28;20109;-77
2021/12/16 06:11:18;;;;;;;65.80;26.40;;;;;;;;;;5036635;28;20064;-79
2021/12/16 06:14:00;;;;;;;71.93;28.52;;;;;;;;;;5018921;28;20045;-78
2021/12/16 06:27:27;;;;;;;64.35;25.65;;;;;;;;;;5024376;28;20033;-81
2021/12/16 06:29:54;;;;;;;78.43;27.58;;;;;;;;;;5026890;28;20022;-80
2021/12/16 06:32:20;;;;;;;65.35;25.40;;;;;;;;;;5010656;28;20040;-81
2021/12/16 06:34:46;;;;;;;66.15;24.45;;;;;;;;;;5032874;28;20037;-79
2021/12/16 06:37:13;;;;;;;78.95;25.13;;;;;;;;;;5027229;28;20150;-80
2021/12/16 06:39:39;;;;;;;65.85;22.58;;;;;;;;;;5028678;28;20029;-80
2021/12/16 06:42:08;;;;;;;62.47;22.67;;;;;;;;;;5007857;28;20044;-79
2021/12/16 06:44:41;;;;;;;53.03;20.40;;;;;;;;;;5022865;28;20021;-79
2021/12/16 06:47:13;;;;;;;60.85;22.17;;;;;;;;;;5006110;28;20022;-81
2021/12/16 06:49:41;;;;;;;60.40;22.15;;;;;;;;;;5022926;28;20022;-80
2021/12/16 06:52:11;;;;;;;64.25;21.50;;;;;;;;;;5007620;28;20050;-80
2021/12/16 06:55:05;;;;;;;83.10;27.73;;;;;;;;;;5029311;28;20018;-82
2021/12/16 07:00:09;;;;;;;63.80;21.00;;;;;;;;;;5019002;28;20036;-77
2021/12/16 07:03:20;;;;;;;63.33;20.60;;;;;;;;;;5024036;28;20029;-78
2021/12/16 07:05:27;;;;;;;51.25;19.00;;;;;;;;;;5016626;28;20033;-78
2021/12/16 07:07:53;;;;;;;65.85;20.25;;;;;;;;;;5029670;28;20227;-78
2021/12/16 07:10:20;;;;;;;63.75;18.33;;;;;;;;;;5045145;23;20057;-79
2021/12/16 07:12:48;;;;;;;60.50;19.02;;;;;;;;;;5017743;28;20467;-80
2021/12/16 07:15:20;;;;;;;52.95;19.33;;;;;;;;;;5021026;28;20491;-78
2021/12/16 07:17:46;;;;;;;62.17;20.92;;;;;;;;;;5018927;28;20106;-79
2021/12/16 07:20:14;;;;;;;54.47;19.45;;;;;;;;;;5020677;28;20049;-79
2021/12/16 07:22:40;;;;;;;59.35;19.15;;;;;;;;;;5022578;28;20133;-79
2021/12/16 07:25:06;;;;;;;58.17;18.92;;;;;;;;;;5020333;28;20112;-79
2021/12/16 07:27:35;;;;;;;56.58;19.48;;;;;;;;;;5018654;28;20030;-78
2021/12/16 07:30:02;;;;;;;63.72;18.90;;;;;;;;;;5019974;28;20034;-78
2021/12/16 07:32:28;;;;;;;56.42;19.75;;;;;;;;;;5023232;28;20056;-79
2021/12/16 07:34:54;;;;;;;61.90;18.55;;;;;;;;;;5018482;28;20022;-79
2021/12/16 07:37:20;;;;;;;62.25;18.02;;;;;;;;;;5022765;28;20056;-78
2021/12/16 07:39:49;;;;;;;52.72;20.08;;;;;;;;;;5032371;28;20034;-82
2021/12/16 07:42:23;;;;;;;60.33;18.95;;;;;;;;;;5006455;28;20022;-79
2021/12/16 07:44:49;;;;;;;;;;;;;;;;;;5006953;28;20028;-79
2021/12/16 07:47:15;;;;;;;45.88;17.15;;;;;;;;;;5022300;28;19972;-79
2021/12/16 07:49:42;;;;;;;46.33;18.20;;;;;;;;;;5030520;28;20079;-76
2021/12/16 07:52:14;;;;;;;57.00;19.00;;;;;;;;;;5025576;28;20076;-75
2021/12/16 07:54:40;;;;;;;51.03;20.63;;;;;;;;;;5015958;28;20471;-75
2021/12/16 07:57:06;;;;;;;55.53;20.15;;;;;;;;;;5021049;28;20030;-80
2021/12/16 07:59:33;;;;;;;62.50;20.25;;;;;;;;;;5029019;28;20034;-77
2021/12/16 08:02:00;;;;;;;49.03;18.52;;;;;;;;;;5028751;28;20037;-79
2021/12/16 08:04:29;;;;;;;57.22;18.40;;;;;;;;;;5012996;28;20041;-79
2021/12/16 08:06:56;;;;;;;44.58;16.40;;;;;;;;;;5007757;28;20029;-77
2021/12/16 08:09:22;;;;;;;36.03;16.65;;;;;;;;;;5015322;28;20077;-78
2021/12/16 08:11:50;;;;;;;53.08;19.13;;;;;;;;;;5004878;28;20034;-78
2021/12/16 08:14:16;;;;;;;47.08;18.45;;;;;;;;;;5022073;28;20476;-77
2021/12/16 08:16:42;;;;;;;45.60;16.70;;;;;;;;;;5033331;28;20082;-78
2021/12/16 08:19:09;;;;;;;45.38;17.45;;;;;;;;;;5017267;28;20022;-77
2021/12/16 08:21:36;;;;;;;38.22;15.82;;;;;;;;;;5036470;28;20090;-78
2021/12/16 08:24:04;;;;;;;43.58;16.85;;;;;;;;;;5036265;28;20045;-77
2021/12/16 08:26:31;;;;;;;33.22;15.98;;;;;;;;;;5036344;28;20033;-78
2021/12/16 08:28:57;;;;;;;45.97;18.98;;;;;;;;;;5031973;28;20045;-79
2021/12/16 08:31:24;;;;;;;88.53;33.08;;;;;;;;;;5031986;28;20022;-77
2021/12/16 08:33:50;;;;;;;69.13;25.52;;;;;;;;;;5011618;28;20030;-78
2021/12/16 08:36:16;;;;;;;50.63;20.13;;;;;;;;;;5029833;28;20014;-78
2021/12/16 08:38:42;;;;;;;43.90;14.30;;;;;;;;;;5012294;28;20025;-79
2021/12/16 08:41:10;;;;;;;36.10;15.10;;;;;;;;;;5032636;28;20026;-79
2021/12/16 08:43:40;;;;;;;43.30;14.68;;;;;;;;;;5028860;28;20041;-79
2021/12/16 08:46:07;;;;;;;43.78;14.80;;;;;;;;;;5025777;28;20022;-80
2021/12/16 08:48:33;;;;;;;34.47;13.40;;;;;;;;;;5007276;28;20036;-80
2021/12/16 08:50:59;;;;;;;36.38;13.50;;;;;;;;;;5024135;28;20030;-78
2021/12/16 08:53:25;;;;;;;27.77;10.63;;;;;;;;;;5027727;28;20033;-79
2021/12/16 08:55:54;;;;;;;26.35;10.27;;;;;;;;;;5025190;28;20037;-79
2021/12/16 08:58:20;;;;;;;27.58;11.77;;;;;;;;;;5023473;28;20018;-80
2021/12/16 09:00:52;;;;;;;25.50;10.85;;;;;;;;;;5023655;28;20033;-80
2021/12/16 09:03:18;;;;;;;30.58;11.18;;;;;;;;;;5023606;28;20029;-79
2021/12/16 09:05:44;;;;;;;24.63;11.07;;;;;;;;;;5021208;28;20033;-76
2021/12/16 09:08:10;;;;;;;22.08;9.13;;;;;;;;;;5017242;28;20030;-77
2021/12/16 09:10:37;;;;;;;36.15;11.05;;;;;;;;;;5018517;28;20089;-78
2021/12/16 09:13:05;;;;;;;30.13;11.57;;;;;;;;;;5023697;28;20037;-80
2021/12/16 09:15:34;;;;;;;22.65;10.05;;;;;;;;;;5025187;28;20076;-81
2021/12/16 09:18:00;;;;;;;23.90;10.00;;;;;;;;;;5022748;28;20076;-78
2021/12/16 09:20:26;;;;;;;22.50;9.07;;;;;;;;;;5006495;28;20050;-78
2021/12/16 09:22:53;;;;;;;22.42;8.02;;;;;;;;;;5026020;28;20045;-78
2021/12/16 09:25:20;;;;;;;26.98;9.40;;;;;;;;;;5025414;28;20030;-79
2021/12/16 09:27:46;;;;;;;23.63;8.40;;;;;;;;;;5029149;28;20025;-78
2021/12/16 09:30:14;;;;;;;26.23;8.93;;;;;;;;;;5030851;28;20529;-79
2021/12/16 09:32:40;;;;;;;23.02;7.43;;;;;;;;;;5015348;28;20077;-79
2021/12/16 09:35:08;;;;;;;23.33;7.25;;;;;;;;;;5014103;28;20009;-77
2021/12/16 09:37:35;;;;;;;23.73;7.72;;;;;;;;;;5030766;28;20029;-80
2021/12/16 09:40:02;;;;;;;23.73;7.47;;;;;;;;;;5031381;28;20020;-77
2021/12/16 09:42:30;;;;;;;24.17;8.18;;;;;;;;;;5019808;28;20058;-79
2021/12/16 09:44:56;;;;;;;25.73;8.45;;;;;;;;;;5017500;28;20041;-79
2021/12/16 09:47:23;;;;;;;22.08;8.07;;;;;;;;;;5006394;28;20060;-77
2021/12/16 09:49:49;;;;;;;25.40;8.55;;;;;;;;;;4986747;28;20056;-77
2021/12/16 09:52:15;;;;;;;19.20;8.27;;;;;;;;;;5018725;28;20053;-76
2021/12/16 09:54:43;;;;;;;24.65;8.48;;;;;;;;;;5025789;28;20045;-79
2021/12/16 09:57:09;;;;;;;54.17;28.38;;;;;;;;;;5026959;28;20022;-79
2021/12/16 09:59:36;;;;;;;53.90;27.42;;;;;;;;;;5026084;28;20026;-78
2021/12/16 10:02:04;;;;;;;28.42;12.02;;;;;;;;;;5006089;28;20181;-78
2021/12/16 10:04:31;;;;;;;30.63;9.40;;;;;;;;;;5028353;28;20045;-79
2021/12/16 10:06:59;;;;;;;29.83;8.50;;;;;;;;;;5025714;28;20041;-79
2021/12/16 10:09:25;;;;;;;45.45;18.90;;;;;;;;;;5008273;28;20049;-79
2021/12/16 10:11:52;;;;;;;27.30;10.10;;;;;;;;;;5026794;28;20045;-79
2021/12/16 10:14:33;;;;;;;29.83;8.82;;;;;;;;;;5025805;28;20026;-79
2021/12/16 10:19:46;;;;;;;25.70;8.00;;;;;;;;;;5024074;28;20102;-79
2021/12/16 10:22:18;;;;;;;25.55;8.32;;;;;;;;;;5007304;28;20030;-80
2021/12/16 10:24:44;;;;;;;23.60;8.40;;;;;;;;;;5008606;28;20026;-79
2021/12/16 10:27:12;;;;;;;28.77;7.88;;;;;;;;;;5024723;28;20061;-80
2021/12/16 10:29:46;;;;;;;30.60;9.45;;;;;;;;;;5026010;28;20034;-79
2021/12/16 10:32:31;;;;;;;22.70;7.57;;;;;;;;;;5025082;28;20026;-79
2021/12/16 10:34:58;;;;;;;31.55;8.30;;;;;;;;;;5025253;28;20022;-78
2021/12/16 10:37:35;;;;;;;21.58;7.10;;;;;;;;;;5023708;28;20033;-80
2021/12/16 10:40:20;;;;;;;26.10;8.40;;;;;;;;;;5022293;28;20085;-80
2021/12/16 10:42:46;;;;;;;;;;;;;;;;;;5026645;28;20036;-78
2021/12/16 10:45:44;;;;;;;26.48;8.27;;;;;;;;;;5012714;28;19898;-79
2021/12/16 10:48:16;;;;;;;31.48;10.48;;;;;;;;;;4970535;28;20390;-80
2021/12/16 10:50:50;;;;;;;100.05;54.03;;;;;;;;;;5024339;28;20064;-79
2021/12/16 10:53:16;;;;;;;39.92;16.98;;;;;;;;;;5033216;28;20030;-79
2021/12/16 10:55:59;;;;;;;38.75;11.85;;;;;;;;;;5035418;28;20130;-79
2021/12/16 10:58:43;;;;;;;31.52;9.10;;;;;;;;;;5029976;28;20030;-81
2021/12/16 11:01:30;;;;;;;30.40;7.68;;;;;;;;;;5025416;28;20034;-80
2021/12/16 11:03:56;;;;;;;36.92;7.80;;;;;;;;;;5015015;28;20041;-79
2021/12/16 11:06:26;;;;;;;43.58;8.77;;;;;;;;;;5019045;28;20110;-78
2021/12/16 11:08:52;;;;;;;29.13;7.25;;;;;;;;;;5036018;28;20041;-79
2021/12/16 11:11:26;;;;;;;27.80;6.32;;;;;;;;;;5015033;28;20022;-79
2021/12/16 11:14:03;;;;;;;60.10;12.32;;;;;;;;;;5026718;28;20110;-82
2021/12/16 11:16:30;;;;;;;40.67;8.32;;;;;;;;;;5007651;28;20022;-80
2021/12/16 11:18:56;;;;;;;43.25;9.15;;;;;;;;;;5026012;28;20030;-80
2021/12/16 11:21:22;;;;;;;30.30;7.47;;;;;;;;;;5031351;28;20040;-79
2021/12/16 11:23:50;;;;;;;27.35;5.95;;;;;;;;;;5032991;28;20029;-80
2021/12/16 11:26:20;;;;;;;29.40;7.18;;;;;;;;;;5031234;28;20026;-79
2021/12/16 11:28:47;;;;;;;37.47;6.70;;;;;;;;;;5027917;28;20046;-80
2021/12/16 11:31:13;;;;;;;46.58;8.68;;;;;;;;;;5025540;28;20037;-80
2021/12/16 11:33:50;;;;;;;38.08;6.03;;;;;;;;;;5022345;28;20617;-79
2021/12/16 11:36:19;;;;;;;37.85;6.72;;;;;;;;;;5006001;28;20033;-80
2021/12/16 11:38:49;;;;;;;30.30;5.90;;;;;;;;;;5024238;28;20026;-79
2021/12/16 11:41:23;;;;;;;35.67;6.30;;;;;;;;;;5027885;28;20080;-78
2021/12/16 11:43:58;;;;;;;40.00;6.63;;;;;;;;;;5023545;28;20502;-79
2021/12/16 11:46:24;;;;;;;;;;;;;;;;;;5022704;28;20266;-78
2021/12/16 11:48:51;;;;;;;28.20;5.90;;;;;;;;;;5023188;28;19921;-79
2021/12/16 11:51:19;;;;;;;40.38;7.47;;;;;;;;;;5005859;28;20049;-79
2021/12/16 11:53:47;;;;;;;37.53;7.15;;;;;;;;;;5024674;28;20076;-80
2021/12/16 11:56:14;;;;;;;32.92;7.30;;;;;;;;;;5022829;28;20022;-78
2021/12/16 11:58:43;;;;;;;34.55;6.68;;;;;;;;;;5029318;28;20022;-80
2021/12/16 12:01:14;;;;;;;41.08;6.90;;;;;;;;;;5008688;28;20034;-80
2021/12/16 12:03:40;;;;;;;34.08;7.15;;;;;;;;;;5024286;28;20056;-79
2021/12/16 12:06:06;;;;;;;32.90;6.05;;;;;;;;;;5024511;28;20168;-80
2021/12/16 12:08:32;;;;;;;32.70;6.85;;;;;;;;;;5024657;28;20077;-80
2021/12/16 12:11:06;;;;;;;36.70;6.72;;;;;;;;;;5030352;28;20030;-80
2021/12/16 12:13:42;;;;;;;22.13;4.87;;;;;;;;;;5013511;28;20041;-80
2021/12/16 12:16:13;;;;;;;24.13;4.88;;;;;;;;;;5026804;28;20272;-80
2021/12/16 12:18:42;;;;;;;40.67;10.00;;;;;;;;;;5010151;28;20032;-78
2021/12/16 12:21:17;;;;;;;58.88;25.05;;;;;;;;;;5032248;28;20037;-79
2021/12/16 12:23:43;;;;;;;34.05;6.05;;;;;;;;;;5031702;28;20026;-78
2021/12/16 12:26:15;;;;;;;28.75;4.80;;;;;;;;;;5026859;28;20030;-79
2021/12/16 12:28:41;;;;;;;32.45;5.72;;;;;;;;;;5029884;28;20056;-79
2021/12/16 12:31:07;;;;;;;30.42;5.10;;;;;;;;;;5034651;28;20030;-78
2021/12/16 12:33:33;;;;;;;31.27;5.10;;;;;;;;;;5023114;28;20026;-81
2021/12/16 12:36:01;;;;;;;31.25;4.78;;;;;;;;;;5033338;28;20085;-80
2021/12/16 12:38:27;;;;;;;25.17;4.35;;;;;;;;;;5010190;28;20121;-80
2021/12/16 12:40:54;;;;;;;31.52;5.35;;;;;;;;;;5035180;28;20022;-78
2021/12/16 12:43:20;;;;;;;37.88;5.80;;;;;;;;;;5028067;28;20036;-79
2021/12/16 12:45:46;;;;;;;30.38;4.97;;;;;;;;;;5028978;28;20026;-80
2021/12/16 12:48:14;;;;;;;35.05;4.72;;;;;;;;;;5028011;28;20370;-78
2021/12/16 12:50:41;;;;;;;31.15;5.05;;;;;;;;;;5030154;28;20034;-79
2021/12/16 12:53:27;;;;;;;27.40;4.50;;;;;;;;;;5014724;28;20022;-79
2021/12/16 12:55:56;;;;;;;32.28;4.75;;;;;;;;;;5027373;28;20026;-78
2021/12/16 12:58:24;;;;;;;38.17;5.78;;;;;;;;;;5025222;28;20113;-78
2021/12/16 13:00:56;;;;;;;39.88;5.03;;;;;;;;;;5006861;28;20054;-81
2021/12/16 13:03:42;;;;;;;28.40;4.63;;;;;;;;;;5026807;28;20094;-79
2021/12/16 13:06:10;;;;;;;25.70;4.60;;;;;;;;;;5025903;28;20109;-81
2021/12/16 13:08:39;;;;;;;33.67;6.93;;;;;;;;;;5027669;28;20041;-78
2021/12/16 13:11:08;;;;;;;18.55;4.65;;;;;;;;;;5014312;28;20095;-82
2021/12/16 13:13:42;;;;;;;25.20;4.53;;;;;;;;;;5010359;28;20021;-80
2021/12/16 13:16:38;;;;;;;25.48;4.90;;;;;;;;;;5009760;28;20068;-79
2021/12/16 13:25:34;;;;;;;26.80;4.93;;;;;;;;;;5030162;28;20121;-81
2021/12/16 13:27:49;;;;;;;21.23;4.82;;;;;;;;;;5025946;28;20676;-81
2021/12/16 13:30:20;;;;;;;38.75;6.93;;;;;;;;;;5015889;28;20030;-80
2021/12/16 13:33:13;;;;;;;28.20;4.63;;;;;;;;;;5034478;28;20041;-80
2021/12/16 13:35:47;;;;;;;32.85;5.85;;;;;;;;;;5033150;28;20117;-80
2021/12/16 13:38:13;;;;;;;26.13;4.38;;;;;;;;;;5033517;28;20085;-83
2021/12/16 13:40:41;;;;;;;37.78;6.47;;;;;;;;;;5012205;28;20041;-81
2021/12/16 13:43:13;;;;;;;34.38;5.30;;;;;;;;;;5014878;28;20033;-83
2021/12/16 13:45:48;;;;;;;31.45;5.80;;;;;;;;;;5026848;28;20021;-82
2021/12/16 13:48:40;;;;;;;31.38;5.13;;;;;;;;;;5024870;28;20022;-80
2021/12/16 14:10:04;;;;;;;33.15;6.13;;;;;;;;;;5034967;28;20056;-83
2021/12/16 14:13:39;;;;;;;32.97;5.45;;;;;;;;;;5022168;28;20034;-83
2021/12/16 14:15:27;;;;;;;32.47;5.88;;;;;;;;;;5038804;28;20014;-83
2021/12/16 14:17:57;;;;;;;46.25;6.38;;;;;;;;;;5018194;28;20041;-80
2021/12/16 14:23:23;;;;;;;38.28;5.47;;;;;;;;;;5033489;28;20032;-81
2021/12/16 14:42:14;;;;;;;29.85;6.55;;;;;;;;;;5025168;28;20148;-81
2021/12/16 14:50:10;;;;;;;27.90;6.00;;;;;;;;;;5008287;28;20082;-80
2021/12/16 14:52:36;;;;;;;36.67;6.35;;;;;;;;;;5009574;28;20018;-81
2021/12/16 14:55:06;;;;;;;31.30;6.32;;;;;;;;;;5007962;28;20050;-82
2021/12/16 14:57:36;;;;;;;27.42;5.18;;;;;;;;;;4993890;28;20233;-80
2021/12/16 15:00:11;;;;;;;38.40;5.43;;;;;;;;;;5013089;28;20019;-83
2021/12/16 15:02:39;;;;;;;33.22;4.93;;;;;;;;;;5013745;28;20030;-81
2021/12/16 15:05:22;;;;;;;19.48;4.43;;;;;;;;;;5013182;28;20049;-83
2021/12/16 15:07:48;;;;;;;24.85;4.72;;;;;;;;;;4999652;28;20061;-82
2021/12/16 15:10:16;;;;;;;33.03;5.28;;;;;;;;;;5016958;28;20034;-83
2021/12/16 15:12:51;;;;;;;31.80;5.57;;;;;;;;;;5016333;28;20014;-84
2021/12/16 15:15:32;;;;;;;30.25;4.93;;;;;;;;;;4999761;28;20094;-83
2021/12/16 15:44:46;;;;;;;39.67;13.40;;;;;;;;;;5018899;28;20061;-81
2021/12/16 15:47:13;;;;;;;38.42;12.35;;;;;;;;;;5021182;28;20034;-80
2021/12/16 15:49:39;;;;;;;31.92;6.53;;;;;;;;;;5004537;28;20034;-83
2021/12/16 15:52:05;;;;;;;30.73;5.60;;;;;;;;;;5021840;28;20014;-83
2021/12/16 15:54:38;;;;;;;33.28;6.35;;;;;;;;;;5020736;28;20030;-82
2021/12/16 15:57:05;;;;;;;32.40;5.20;;;;;;;;;;5005580;28;20090;-82
2021/12/16 15:59:31;;;;;;;25.73;6.10;;;;;;;;;;5014046;28;20034;-82
2021/12/16 16:01:58;;;;;;;30.23;5.18;;;;;;;;;;5011566;28;20085;-83
2021/12/16 16:04:26;;;;;;;29.08;6.10;;;;;;;;;;4994682;28;20026;-83
2021/12/16 16:06:56;;;;;;;31.67;6.35;;;;;;;;;;5010806;28;20093;-81
2021/12/16 16:09:22;;;;;;;51.30;6.55;;;;;;;;;;4993929;28;20065;-82
2021/12/16 16:11:52;;;;;;;34.65;6.43;;;;;;;;;;4993413;28;20031;-81
2021/12/16 16:14:19;;;;;;;32.08;9.15;;;;;;;;;;5011223;28;20018;-83
2021/12/16 16:16:50;;;;;;;30.33;6.63;;;;;;;;;;5010458;28;20034;-83
2021/12/16 16:19:22;;;;;;;37.13;8.00;;;;;;;;;;5011724;28;20027;-82
2021/12/16 16:21:49;;;;;;;38.55;7.22;;;;;;;;;;5011396;28;20038;-82
2021/12/16 16:24:20;;;;;;;30.25;5.93;;;;;;;;;;5013031;28;20033;-83
2021/12/16 16:26:47;;;;;;;34.15;6.10;;;;;;;;;;5018111;28;20025;-84
2021/12/16 16:29:15;;;;;;;32.15;5.80;;;;;;;;;;5020418;28;20030;-83
2021/12/16 16:31:42;;;;;;;41.33;6.65;;;;;;;;;;5020722;28;20021;-82
2021/12/16 16:34:13;;;;;;;34.95;6.35;;;;;;;;;;4993577;28;20061;-81
2021/12/16 16:36:40;;;;;;;25.60;6.10;;;;;;;;;;5015408;28;20030;-84
2021/12/16 16:39:08;;;;;;;30.13;6.60;;;;;;;;;;5013356;28;20101;-81
2021/12/16 16:41:38;;;;;;;49.35;8.15;;;;;;;;;;5013377;28;20064;-80
2021/12/16 16:44:07;;;;;;;34.03;8.20;;;;;;;;;;5014858;28;20030;-82
2021/12/16 16:46:41;;;;;;;30.42;6.10;;;;;;;;;;4998463;28;20090;-81
2021/12/16 16:49:10;;;;;;;27.65;5.63;;;;;;;;;;4995847;28;20034;-81
2021/12/16 16:51:44;;;;;;;29.92;8.43;;;;;;;;;;5033653;28;20030;-81
2021/12/16 16:54:10;;;;;;;28.17;5.95;;;;;;;;;;5032873;28;20049;-81
2021/12/16 16:56:53;;;;;;;25.70;5.88;;;;;;;;;;5032895;28;20017;-82
2021/12/16 16:59:57;;;;;;;33.72;6.40;;;;;;;;;;5034638;28;20037;-85
2021/12/16 17:02:35;;;;;;;25.75;6.30;;;;;;;;;;4996142;28;20038;-84
2021/12/16 17:05:25;;;;;;;35.13;9.68;;;;;;;;;;5012475;28;20034;-81
2021/12/16 17:07:53;;;;;;;40.88;10.82;;;;;;;;;;5028271;28;20049;-83
2021/12/16 17:10:21;;;;;;;39.15;8.63;;;;;;;;;;5034425;28;20049;-83
2021/12/16 17:12:47;;;;;;;36.72;7.93;;;;;;;;;;5032325;28;20026;-80
2021/12/16 17:15:31;;;;;;;31.55;7.18;;;;;;;;;;5017522;28;20016;-84
2021/12/16 17:17:57;;;;;;;33.00;7.35;;;;;;;;;;5034767;28;20049;-83
2021/12/16 17:20:23;;;;;;;29.55;6.97;;;;;;;;;;5018960;28;20038;-84
2021/12/16 17:22:52;;;;;;;36.38;7.88;;;;;;;;;;5036391;28;20034;-80
2021/12/16 17:25:20;;;;;;;29.45;7.22;;;;;;;;;;5037137;28;20085;-82
2021/12/16 17:27:49;;;;;;;22.02;7.55;;;;;;;;;;5014938;28;20030;-81
2021/12/16 17:30:20;;;;;;;26.77;7.75;;;;;;;;;;5032648;28;20097;-80
2021/12/16 17:32:47;;;;;;;34.03;8.82;;;;;;;;;;5035325;28;20021;-86
2021/12/16 17:35:28;;;;;;;29.58;8.48;;;;;;;;;;5039636;28;20030;-83
2021/12/16 17:38:00;;;;;;;34.78;9.65;;;;;;;;;;5039748;28;20017;-82
2021/12/16 17:40:37;;;;;;;28.25;7.57;;;;;;;;;;5018198;28;20026;-81
2021/12/16 17:43:06;;;;;;;30.25;8.38;;;;;;;;;;5032756;28;20091;-81
2021/12/16 17:45:38;;;;;;;28.33;8.48;;;;;;;;;;5033238;28;20049;-81
2021/12/16 17:48:06;;;;;;;33.05;8.82;;;;;;;;;;5014171;28;20022;-82
2021/12/16 17:50:34;;;;;;;29.63;9.15;;;;;;;;;;5013575;28;20053;-82
2021/12/16 17:53:00;;;;;;;42.83;12.40;;;;;;;;;;5013681;28;20136;-80
2021/12/16 17:55:29;;;;;;;41.08;13.90;;;;;;;;;;5029805;28;20026;-83
2021/12/16 17:57:57;;;;;;;35.35;9.65;;;;;;;;;;5029154;28;20013;-82
2021/12/16 18:00:38;;;;;;;25.33;7.50;;;;;;;;;;5011567;28;20036;-81
2021/12/16 18:03:05;;;;;;;29.70;8.25;;;;;;;;;;5011170;28;20018;-80
2021/12/16 18:05:47;;;;;;;37.47;8.43;;;;;;;;;;5029879;28;20030;-79
2021/12/16 18:08:21;;;;;;;38.22;9.70;;;;;;;;;;5018170;28;20170;-80
2021/12/16 18:10:47;;;;;;;47.17;16.48;;;;;;;;;;5032754;28;20081;-83
2021/12/16 18:13:13;;;;;;;94.15;37.60;;;;;;;;;;5031425;28;20044;-81
2021/12/16 18:15:40;;;;;;;88.95;37.47;;;;;;;;;;5030572;28;20483;-80
2021/12/16 18:18:11;;;;;;;35.38;12.00;;;;;;;;;;5029056;28;20078;-79